Time;durP1;ratioP1;P1;durP2;ratioP2;P2;SDS_P1;SDS_P2;PMS_P1;PMS_P2;Temp;Humidity;BMP_temperature;BMP_pressure;BME280_temperature;BME280_humidity;BME280_pressure;Samples;Min_cycle;Max_cycle;Signal;HPM_P1;HPM_P2
2023/12/13 00:02:04;;;;;;;33.05;24.95;;;;;;;7.52;77.16;98936.09;4472123;32;34842;-79
2023/12/13 00:04:33;;;;;;;32.50;23.70;;;;;;;7.13;78.96;98925.69;4471424;32;34036;-79
2023/12/13 00:07:03;;;;;;;32.85;24.42;;;;;;;7.19;78.93;98920.91;4471950;32;33770;-80
2023/12/13 00:09:32;;;;;;;34.35;25.20;;;;;;;7.31;78.37;98907.69;4471600;32;33851;-80
2023/12/13 00:12:01;;;;;;;32.35;24.33;;;;;;;7.20;78.91;98910.25;4471584;32;34102;-80
2023/12/13 00:14:31;;;;;;;35.15;25.05;;;;;;;7.66;77.30;98908.75;4471511;32;34230;-79
2023/12/13 00:17:00;;;;;;;43.22;26.00;;;;;;;7.79;76.60;98899.81;4472111;32;33696;-80
2023/12/13 00:19:33;;;;;;;39.75;26.87;;;;;;;7.22;78.75;98902.25;4471604;32;34789;-80
2023/12/13 00:22:03;;;;;;;39.47;28.45;;;;;;;6.92;79.90;98895.56;4471364;32;33963;-79
2023/12/13 00:24:32;;;;;;;31.77;25.70;;;;;;;7.25;78.60;98889.72;4471135;32;33992;-80
2023/12/13 00:27:02;;;;;;;37.35;28.15;;;;;;;7.29;78.92;98879.81;4471415;32;33793;-80
2023/12/13 00:29:34;;;;;;;38.40;27.17;;;;;;;7.06;79.68;98877.00;4471442;32;34131;-80
2023/12/13 00:32:04;;;;;;;34.17;28.17;;;;;;;6.96;79.96;98873.31;4471508;32;34933;-80
2023/12/13 00:34:34;;;;;;;30.45;24.33;;;;;;;6.95;80.31;98871.66;4471108;32;34037;-79
2023/12/13 00:37:04;;;;;;;34.67;25.95;;;;;;;7.24;79.60;98871.34;4471228;32;34171;-79
2023/12/13 00:39:33;;;;;;;33.17;26.42;;;;;;;7.04;79.76;98876.25;4470904;32;34663;-79
2023/12/13 00:42:02;;;;;;;36.45;24.95;;;;;;;7.06;80.23;98858.56;4470993;32;34158;-79
2023/12/13 00:44:31;;;;;;;36.00;26.92;;;;;;;7.27;78.61;98861.44;4470813;32;34035;-79
2023/12/13 00:47:01;;;;;;;36.08;27.50;;;;;;;7.20;79.31;98870.75;4471362;32;33964;-80
2023/12/13 00:49:34;;;;;;;32.83;26.15;;;;;;;7.42;78.78;98875.31;4471101;32;34227;-79
2023/12/13 00:52:04;;;;;;;33.13;25.10;;;;;;;7.53;77.74;98866.63;4471014;32;33973;-80
2023/12/13 00:54:34;;;;;;;41.22;27.70;;;;;;;7.30;79.33;98871.78;4471162;32;34600;-79
2023/12/13 00:57:03;;;;;;;38.95;27.70;;;;;;;7.23;78.60;98869.69;4471061;32;33633;-79
2023/12/13 00:59:33;;;;;;;32.17;24.98;;;;;;;7.35;78.80;98863.53;4470877;32;34712;-79
2023/12/13 01:02:03;;;;;;;36.00;28.85;;;;;;;7.46;78.32;98852.22;4457254;32;33598;-79
2023/12/13 01:04:36;;;;;;;34.95;28.00;;;;;;;7.30;78.54;98861.22;4471432;32;34047;-79
2023/12/13 01:07:06;;;;;;;38.17;27.65;;;;;;;7.30;78.95;98857.75;4471451;32;34532;-80
2023/12/13 01:09:35;;;;;;;37.78;26.80;;;;;;;7.32;78.48;98853.19;4471489;32;33890;-79
2023/12/13 01:12:05;;;;;;;37.95;26.73;;;;;;;7.36;78.11;98841.50;4470988;32;34215;-80
2023/12/13 01:14:34;;;;;;;37.47;27.35;;;;;;;7.61;77.45;98828.22;4471360;32;33847;-79
2023/12/13 01:17:04;;;;;;;35.42;25.90;;;;;;;7.40;77.99;98829.75;4472311;32;33754;-79
2023/12/13 01:19:34;;;;;;;36.72;27.73;;;;;;;7.30;78.46;98832.25;4471828;32;34930;-79
2023/12/13 01:22:04;;;;;;;37.15;27.55;;;;;;;7.27;78.85;98821.09;4471687;32;33919;-80
2023/12/13 01:24:33;;;;;;;37.00;26.95;;;;;;;7.20;79.35;98820.69;4471170;32;34034;-79
2023/12/13 01:27:02;;;;;;;36.13;25.98;;;;;;;7.30;78.84;98812.97;4471609;32;34016;-79
2023/12/13 01:29:32;;;;;;;37.55;26.85;;;;;;;7.28;79.26;98810.41;4471570;32;34872;-79
2023/12/13 01:32:01;;;;;;;36.08;27.98;;;;;;;7.23;79.16;98809.09;4472032;32;34031;-79
2023/12/13 01:34:31;;;;;;;34.75;28.02;;;;;;;7.51;77.42;98803.47;4471396;32;34058;-79
2023/12/13 01:37:04;;;;;;;;;;;;;;;7.61;77.25;98811.56;4472049;32;33792;-80
2023/12/13 01:39:33;;;;;;;34.20;25.52;;;;;;;7.79;76.50;98799.59;4471515;32;34167;-80
2023/12/13 01:42:03;;;;;;;37.10;26.77;;;;;;;7.52;77.26;98792.00;4471245;32;34962;-79
2023/12/13 01:44:32;;;;;;;35.35;25.42;;;;;;;7.43;77.90;98792.66;4471792;32;34113;-79
2023/12/13 01:47:02;;;;;;;32.08;23.33;;;;;;;7.46;77.46;98786.31;4471616;32;33657;-79
2023/12/13 01:49:32;;;;;;;31.17;27.02;;;;;;;7.34;78.45;98782.81;4471170;32;34107;-79
2023/12/13 01:52:02;;;;;;;35.67;25.17;;;;;;;7.31;78.66;98775.94;4471314;32;35144;-80
2023/12/13 01:54:33;;;;;;;37.63;25.85;;;;;;;7.45;77.89;98767.03;4471538;32;34204;-79
2023/12/13 01:57:03;;;;;;;26.58;22.48;;;;;;;7.50;77.58;98764.06;4471362;32;33791;-80
2023/12/13 01:59:33;;;;;;;28.60;23.23;;;;;;;7.49;77.48;98760.59;4471261;32;34843;-79
2023/12/13 02:02:03;;;;;;;26.15;21.35;;;;;;;7.76;76.72;98762.06;4471439;32;34092;-80
2023/12/13 02:04:35;;;;;;;28.70;22.92;;;;;;;7.84;76.18;98747.38;4471092;32;34225;-79
2023/12/13 02:07:05;;;;;;;29.08;21.42;;;;;;;7.70;76.51;98746.75;4470961;32;34461;-79
2023/12/13 02:09:36;;;;;;;28.30;20.83;;;;;;;7.43;77.44;98741.75;4470908;32;33762;-79
2023/12/13 02:12:06;;;;;;;28.33;22.02;;;;;;;7.43;77.58;98734.69;4470567;32;34107;-79
2023/12/13 02:14:36;;;;;;;26.67;20.98;;;;;;;7.09;78.60;98729.28;4470498;32;34495;-79
2023/12/13 02:17:05;;;;;;;30.12;20.80;;;;;;;7.41;77.64;98733.13;4471082;32;34412;-80
2023/12/13 02:19:36;;;;;;;24.75;19.77;;;;;;;7.41;77.22;98726.06;4470792;32;33891;-79
2023/12/13 02:22:08;;;;;;;24.98;18.08;;;;;;;7.67;76.50;98720.59;4470522;32;34156;-80
2023/12/13 02:24:40;;;;;;;22.48;18.50;;;;;;;7.55;76.35;98717.94;4470310;32;34817;-79
2023/12/13 02:27:10;;;;;;;22.20;17.80;;;;;;;7.38;77.20;98721.84;4472268;32;33793;-79
2023/12/13 02:29:39;;;;;;;25.52;19.08;;;;;;;7.70;76.18;98710.66;4472641;32;33978;-79
2023/12/13 02:32:10;;;;;;;21.05;16.60;;;;;;;7.48;77.08;98714.06;4472836;32;34326;-79
2023/12/13 02:34:41;;;;;;;19.00;16.90;;;;;;;7.49;76.70;98696.50;4472385;32;33723;-79
2023/12/13 02:37:12;;;;;;;20.62;16.80;;;;;;;7.56;76.66;98698.56;4472402;32;33623;-80
2023/12/13 02:39:41;;;;;;;22.67;16.20;;;;;;;7.44;76.74;98696.81;4472126;32;34217;-79
2023/12/13 02:42:11;;;;;;;23.23;17.45;;;;;;;7.31;77.01;98689.00;4471903;32;33862;-79
2023/12/13 02:44:42;;;;;;;18.58;14.43;;;;;;;7.52;76.49;98691.84;4471758;32;33954;-79
2023/12/13 02:47:12;;;;;;;20.50;15.90;;;;;;;7.72;75.37;98690.31;4472328;32;33309;-79
2023/12/13 02:49:41;;;;;;;22.75;16.80;;;;;;;7.55;75.79;98686.31;4471897;32;33783;-79
2023/12/13 02:52:12;;;;;;;16.87;14.93;;;;;;;7.76;75.38;98689.13;4472017;32;34855;-79
2023/12/13 02:54:42;;;;;;;18.48;14.05;;;;;;;7.61;75.57;98679.75;4471456;32;34698;-79
2023/12/13 02:57:11;;;;;;;15.48;12.75;;;;;;;7.71;75.06;98674.59;4471774;32;34375;-79
2023/12/13 02:59:40;;;;;;;17.02;12.20;;;;;;;7.84;74.71;98675.34;4471831;32;34129;-79
2023/12/13 03:02:13;;;;;;;13.27;11.85;;;;;;;7.84;74.63;98670.06;4471962;32;33938;-79
2023/12/13 03:04:42;;;;;;;13.48;12.07;;;;;;;7.70;74.97;98680.81;4471320;32;34201;-79
2023/12/13 03:07:13;;;;;;;14.48;11.48;;;;;;;7.93;73.99;98684.34;4471714;32;33773;-79
2023/12/13 03:09:42;;;;;;;15.88;12.73;;;;;;;7.91;73.93;98691.50;4471575;32;34361;-79
2023/12/13 03:12:11;;;;;;;16.30;13.10;;;;;;;7.79;74.18;98685.38;4471763;32;34060;-79
2023/12/13 03:14:40;;;;;;;15.73;12.95;;;;;;;8.07;73.35;98682.28;4471692;32;34316;-79
2023/12/13 03:17:09;;;;;;;15.10;12.20;;;;;;;8.13;72.98;98673.88;4472602;32;34381;-79
2023/12/13 03:19:39;;;;;;;15.52;13.15;;;;;;;8.09;73.04;98674.25;4471984;32;34825;-79
2023/12/13 03:22:08;;;;;;;12.23;10.65;;;;;;;8.23;72.35;98663.44;4472083;32;34155;-79
2023/12/13 03:24:38;;;;;;;14.82;12.37;;;;;;;8.41;71.62;98670.91;4471942;32;34843;-79
2023/12/13 03:27:07;;;;;;;17.20;13.15;;;;;;;8.06;72.63;98666.56;4472108;32;33804;-79
2023/12/13 03:29:36;;;;;;;13.02;11.57;;;;;;;8.06;72.32;98666.56;4472543;32;34450;-80
2023/12/13 03:32:06;;;;;;;15.10;12.85;;;;;;;8.04;72.27;98668.50;4472809;32;34106;-79
2023/12/13 03:34:35;;;;;;;14.02;12.48;;;;;;;7.96;72.42;98658.56;4472419;32;35220;-79
2023/12/13 03:37:06;;;;;;;14.38;11.77;;;;;;;7.85;73.21;98650.63;4472210;32;33432;-79
2023/12/13 03:39:36;;;;;;;14.15;11.85;;;;;;;8.06;71.79;98664.78;4465562;32;33961;-79
2023/12/13 03:42:06;;;;;;;12.60;10.95;;;;;;;7.50;73.39;98654.19;4472004;32;33623;-79
2023/12/13 03:44:35;;;;;;;11.90;10.65;;;;;;;7.31;74.72;98640.75;4471528;32;34655;-79
2023/12/13 03:47:05;;;;;;;10.80;9.43;;;;;;;7.33;74.60;98641.47;4472124;32;33575;-79
2023/12/13 03:49:34;;;;;;;10.77;9.70;;;;;;;7.37;74.29;98627.94;4472193;32;34041;-79
2023/12/13 03:52:04;;;;;;;10.27;9.18;;;;;;;7.83;72.29;98629.66;4471649;32;34206;-79
2023/12/13 03:54:34;;;;;;;9.80;8.82;;;;;;;7.27;74.02;98620.84;4471278;32;34118;-79
2023/12/13 03:57:06;;;;;;;10.15;8.23;;;;;;;7.15;74.83;98617.34;4471434;32;33946;-79
2023/12/13 03:59:35;;;;;;;9.00;8.10;;;;;;;7.11;75.20;98602.72;4471900;32;33935;-80
2023/12/13 04:02:04;;;;;;;9.43;7.78;;;;;;;7.02;75.41;98611.34;4472015;32;33816;-79
2023/12/13 04:04:37;;;;;;;9.40;8.40;;;;;;;7.11;75.15;98616.75;4471931;32;33977;-79
2023/12/13 04:07:08;;;;;;;9.32;8.35;;;;;;;7.41;74.21;98614.53;4458052;32;33591;-79
2023/12/13 04:09:38;;;;;;;9.40;7.68;;;;;;;7.23;74.72;98620.25;4472383;32;34262;-79
2023/12/13 04:12:10;;;;;;;8.65;6.97;;;;;;;7.46;73.88;98615.84;4472476;32;33901;-79
2023/12/13 04:14:39;;;;;;;8.18;7.35;;;;;;;7.48;73.78;98611.28;4472199;32;33937;-79
2023/12/13 04:17:08;;;;;;;8.88;7.70;;;;;;;7.39;74.00;98612.00;4472837;32;33356;-80
2023/12/13 04:19:37;;;;;;;9.20;7.28;;;;;;;7.56;73.48;98615.97;4472257;32;33736;-80
2023/12/13 04:22:06;;;;;;;9.77;8.35;;;;;;;7.77;72.72;98614.31;4472453;32;33895;-79
2023/12/13 04:24:35;;;;;;;10.40;9.15;;;;;;;7.79;72.56;98609.75;4472046;32;34046;-80
2023/12/13 04:27:05;;;;;;;9.85;8.57;;;;;;;7.92;72.09;98614.91;4472705;32;33522;-79
2023/12/13 04:29:36;;;;;;;9.40;8.40;;;;;;;8.07;71.41;98610.22;4472683;32;34261;-80
2023/12/13 04:32:05;;;;;;;9.77;8.75;;;;;;;7.89;71.86;98607.25;4473365;32;33852;-79
2023/12/13 04:34:35;;;;;;;9.20;8.35;;;;;;;7.98;71.66;98593.31;4472570;32;34280;-80
2023/12/13 04:37:04;;;;;;;9.48;8.07;;;;;;;8.03;71.50;98596.41;4472744;32;34715;-80
2023/12/13 04:39:34;;;;;;;7.65;6.80;;;;;;;7.98;71.69;98595.97;4472911;32;33956;-79
2023/12/13 04:42:06;;;;;;;8.23;5.90;;;;;;;8.03;71.23;98595.59;4472777;32;35018;-79
2023/12/13 04:44:37;;;;;;;7.50;6.10;;;;;;;8.03;71.30;98614.06;4472409;32;34196;-79
2023/12/13 04:47:06;;;;;;;7.65;5.20;;;;;;;7.91;71.46;98591.28;4472103;32;34618;-80
2023/12/13 04:49:37;;;;;;;6.15;5.32;;;;;;;8.12;70.56;98585.16;4472667;32;34134;-79
2023/12/13 04:52:06;;;;;;;6.37;5.45;;;;;;;8.18;70.31;98594.38;4472527;32;34114;-80
2023/12/13 04:54:37;;;;;;;6.95;5.50;;;;;;;8.22;70.01;98593.16;4465929;32;34037;-79
2023/12/13 04:57:06;;;;;;;6.87;4.87;;;;;;;8.19;70.02;98601.31;4472528;32;34483;-80
2023/12/13 04:59:37;;;;;;;7.07;5.30;;;;;;;8.09;70.21;98608.31;4472075;32;34117;-79
2023/12/13 05:02:06;;;;;;;5.05;4.43;;;;;;;8.26;69.29;98605.16;4472568;32;34840;-79
2023/12/13 05:04:37;;;;;;;5.82;4.62;;;;;;;8.17;69.65;98608.53;4465046;32;34741;-79
2023/12/13 05:07:08;;;;;;;5.55;4.70;;;;;;;7.96;70.12;98610.22;4471341;32;34162;-80
2023/12/13 05:09:38;;;;;;;4.75;4.35;;;;;;;7.97;70.14;98607.47;4470593;32;34630;-77
2023/12/13 05:12:07;;;;;;;6.47;5.10;;;;;;;7.89;69.98;98605.44;4470096;32;33956;-80
2023/12/13 05:14:38;;;;;;;7.30;5.78;;;;;;;8.00;69.62;98607.25;4469792;32;33992;-78
2023/12/13 05:17:07;;;;;;;5.35;4.82;;;;;;;7.89;69.98;98613.34;4470252;32;33567;-79
2023/12/13 05:19:36;;;;;;;6.20;5.60;;;;;;;7.61;70.75;98613.84;4470013;32;34119;-79
2023/12/13 05:22:06;;;;;;;5.95;4.68;;;;;;;7.30;71.29;98613.56;4469887;32;34135;-78
2023/12/13 05:24:35;;;;;;;5.70;4.82;;;;;;;7.69;70.39;98614.09;4469716;32;33977;-78
2023/12/13 05:27:05;;;;;;;6.68;6.03;;;;;;;7.73;70.27;98614.69;4469946;32;34194;-78
2023/12/13 05:29:35;;;;;;;9.25;8.20;;;;;;;7.80;69.59;98607.94;4469722;32;34713;-78
2023/12/13 05:32:06;;;;;;;20.42;14.87;;;;;;;7.78;69.58;98602.81;4471245;32;34004;-79
2023/12/13 05:34:35;;;;;;;13.18;9.95;;;;;;;7.83;69.46;98594.53;4471309;32;34156;-80
2023/12/13 05:37:06;;;;;;;9.45;7.35;;;;;;;7.73;69.33;98597.06;4470518;32;34343;-79
2023/12/13 05:39:35;;;;;;;6.18;4.53;;;;;;;7.60;69.92;98596.31;4463331;32;34147;-78
2023/12/13 05:42:04;;;;;;;5.95;4.90;;;;;;;7.72;69.75;98591.87;4455468;32;32460;-78
2023/12/13 05:44:33;;;;;;;4.90;4.32;;;;;;;7.73;69.56;98588.31;4455392;32;34939;-79
2023/12/13 05:47:03;;;;;;;4.90;4.40;;;;;;;7.71;69.77;98590.22;4472385;32;33680;-79
2023/12/13 05:49:34;;;;;;;7.03;5.47;;;;;;;7.83;69.51;98579.53;4471361;32;33777;-78
2023/12/13 05:52:04;;;;;;;5.07;4.57;;;;;;;7.69;69.87;98576.34;4469684;32;34088;-79
2023/12/13 05:54:33;;;;;;;4.25;3.85;;;;;;;7.77;69.65;98576.56;4469256;32;34662;-78
2023/12/13 05:57:04;;;;;;;5.15;4.53;;;;;;;7.77;69.53;98574.78;4469672;32;34062;-79
2023/12/13 05:59:34;;;;;;;6.28;5.28;;;;;;;7.77;69.56;98579.22;4469176;32;34004;-78
2023/12/13 06:02:03;;;;;;;6.43;5.28;;;;;;;7.72;69.69;98574.31;4469729;32;34253;-78
2023/12/13 06:04:34;;;;;;;6.62;5.80;;;;;;;7.64;69.95;98569.63;4469315;32;33881;-77
2023/12/13 06:07:04;;;;;;;8.02;7.18;;;;;;;7.73;69.77;98568.06;4469187;32;34157;-79
2023/12/13 06:09:34;;;;;;;7.78;6.62;;;;;;;7.84;69.48;98569.84;4469242;32;34711;-78
2023/12/13 06:12:03;;;;;;;7.97;6.20;;;;;;;7.80;69.55;98569.25;4469198;32;34795;-78
2023/12/13 06:14:33;;;;;;;6.90;6.20;;;;;;;7.66;70.08;98566.84;4468916;32;34948;-77
2023/12/13 06:17:03;;;;;;;9.65;7.25;;;;;;;7.64;70.19;98552.94;4469675;32;33619;-79
2023/12/13 06:19:34;;;;;;;12.63;9.23;;;;;;;7.65;70.23;98554.66;4469195;32;33953;-79
2023/12/13 06:22:04;;;;;;;18.12;15.88;;;;;;;7.77;69.81;98547.56;4454966;32;33599;-78
2023/12/13 06:24:33;;;;;;;23.00;20.00;;;;;;;7.76;69.91;98551.13;4468679;32;34341;-79
2023/12/13 06:27:02;;;;;;;15.80;13.27;;;;;;;7.88;69.43;98539.66;4468974;32;34444;-78
2023/12/13 06:29:32;;;;;;;24.83;17.42;;;;;;;7.84;69.54;98543.50;4468891;32;34052;-78
2023/12/13 06:32:01;;;;;;;19.75;14.63;;;;;;;7.71;70.03;98555.94;4469414;32;34085;-79
2023/12/13 06:34:31;;;;;;;7.93;7.00;;;;;;;7.73;70.04;98551.41;4468685;32;34789;-78
2023/12/13 06:37:02;;;;;;;6.62;5.57;;;;;;;8.08;68.85;98564.44;4468872;32;34581;-79
2023/12/13 06:39:32;;;;;;;6.03;4.30;;;;;;;8.02;69.03;98568.37;4469227;32;34833;-78
2023/12/13 06:42:02;;;;;;;6.43;4.65;;;;;;;7.97;69.04;98560.00;4468556;32;34039;-78
2023/12/13 06:44:32;;;;;;;6.95;4.62;;;;;;;7.98;68.92;98566.09;4468430;32;33824;-79
2023/12/13 06:47:00;;;;;;;5.93;4.65;;;;;;;7.84;69.55;98561.94;4469124;32;33587;-79
2023/12/13 06:49:34;;;;;;;6.03;3.92;;;;;;;7.87;69.71;98561.69;4468417;32;34244;-79
2023/12/13 06:52:05;;;;;;;5.93;4.85;;;;;;;8.13;68.70;98572.78;4468562;32;35129;-78
2023/12/13 06:54:34;;;;;;;7.50;5.50;;;;;;;8.05;68.99;98562.84;4468394;32;33860;-78
2023/12/13 06:57:06;;;;;;;7.30;5.53;;;;;;;7.96;69.24;98563.59;4468608;32;34268;-78
2023/12/13 06:59:35;;;;;;;8.57;5.90;;;;;;;8.11;68.74;98567.63;4468646;32;33628;-79
2023/12/13 07:02:05;;;;;;;11.60;7.25;;;;;;;8.10;68.76;98560.69;4468936;32;33807;-79
2023/12/13 07:04:35;;;;;;;6.07;5.43;;;;;;;8.16;68.52;98564.66;4468512;32;34032;-78
2023/12/13 07:07:06;;;;;;;10.10;5.45;;;;;;;8.14;68.58;98562.09;4468408;32;34232;-79
2023/12/13 07:09:35;;;;;;;5.50;4.10;;;;;;;7.84;69.61;98564.59;4468355;32;34519;-78
2023/12/13 07:12:06;;;;;;;7.05;4.78;;;;;;;7.96;69.79;98557.47;4470068;32;33923;-79
2023/12/13 07:14:36;;;;;;;7.45;5.82;;;;;;;7.83;70.08;98555.81;4464141;32;33919;-78
2023/12/13 07:17:06;;;;;;;6.12;4.57;;;;;;;7.78;70.42;98559.78;4470969;32;33854;-79
2023/12/13 07:19:35;;;;;;;4.85;3.80;;;;;;;7.95;69.78;98567.19;4470762;32;33901;-79
2023/12/13 07:22:06;;;;;;;6.65;4.00;;;;;;;7.88;70.27;98560.75;4470708;32;34072;-79
2023/12/13 07:24:35;;;;;;;6.28;5.68;;;;;;;7.86;69.93;98563.47;4470390;32;33837;-79
2023/12/13 07:27:05;;;;;;;4.45;4.03;;;;;;;7.76;70.50;98559.06;4470404;32;34139;-79
2023/12/13 07:29:34;;;;;;;4.75;3.83;;;;;;;7.68;70.84;98554.41;4470443;32;33840;-79
2023/12/13 07:32:04;;;;;;;4.85;3.83;;;;;;;7.92;70.27;98561.31;4471129;32;34708;-79
2023/12/13 07:34:34;;;;;;;4.97;3.08;;;;;;;7.72;70.91;98557.62;4470308;32;33853;-79
2023/12/13 07:37:03;;;;;;;4.80;4.30;;;;;;;8.03;70.11;98556.84;4472499;32;34073;-79
2023/12/13 07:39:36;;;;;;;4.35;3.45;;;;;;;8.00;70.08;98565.03;4472365;32;33807;-80
2023/12/13 07:42:06;;;;;;;5.35;3.37;;;;;;;7.91;70.34;98555.19;4472151;32;35198;-79
2023/12/13 07:44:35;;;;;;;4.65;4.10;;;;;;;8.10;69.96;98557.22;4471770;32;33956;-79
2023/12/13 07:47:04;;;;;;;4.28;3.75;;;;;;;8.13;69.27;98546.41;4472967;32;33600;-79
2023/12/13 07:49:34;;;;;;;6.85;4.35;;;;;;;8.13;69.52;98541.97;4471968;32;34708;-79
2023/12/13 07:52:04;;;;;;;5.18;4.10;;;;;;;7.91;69.94;98544.66;4472385;32;33895;-79
2023/12/13 07:54:34;;;;;;;8.75;5.90;;;;;;;7.54;71.21;98552.84;4471858;32;34811;-79
2023/12/13 07:57:05;;;;;;;6.50;5.45;;;;;;;7.63;71.35;98546.84;4472598;32;33471;-79
2023/12/13 07:59:34;;;;;;;8.63;7.78;;;;;;;7.26;72.47;98530.44;4472085;32;33872;-79
2023/12/13 08:02:04;;;;;;;17.73;9.57;;;;;;;7.41;72.31;98531.06;4472021;32;34268;-79
2023/12/13 08:04:34;;;;;;;13.70;8.88;;;;;;;7.67;71.37;98522.87;4472903;32;34120;-79
2023/12/13 08:07:03;;;;;;;17.15;9.82;;;;;;;7.66;71.35;98521.22;4473121;32;34106;-79
2023/12/13 08:09:34;;;;;;;15.93;9.18;;;;;;;7.80;71.04;98511.25;4472699;32;34057;-79
2023/12/13 08:12:05;;;;;;;10.57;6.12;;;;;;;7.97;70.48;98517.78;4472486;32;34709;-79
2023/12/13 08:14:34;;;;;;;12.75;5.87;;;;;;;8.01;70.38;98511.31;4471952;32;33953;-79
2023/12/13 08:17:08;;;;;;;14.07;7.72;;;;;;;8.14;69.60;98511.16;4471734;32;33464;-79
2023/12/13 08:19:37;;;;;;;10.27;5.60;;;;;;;8.09;69.71;98511.53;4471951;32;33689;-79
2023/12/13 08:22:07;;;;;;;8.02;6.10;;;;;;;8.17;69.83;98510.06;4471670;32;33808;-79
2023/12/13 08:24:37;;;;;;;14.65;6.05;;;;;;;8.10;69.94;98518.47;4465499;32;35407;-79
2023/12/13 08:27:07;;;;;;;6.40;5.32;;;;;;;7.90;70.60;98516.59;4471610;32;34244;-79
2023/12/13 08:29:36;;;;;;;9.70;5.43;;;;;;;8.30;69.58;98505.47;4471598;32;33933;-79
2023/12/13 08:32:06;;;;;;;8.68;5.65;;;;;;;8.14;69.92;98503.22;4471875;32;34801;-79
2023/12/13 08:34:35;;;;;;;8.15;6.12;;;;;;;8.13;70.17;98497.13;4471166;32;34923;-79
2023/12/13 08:37:05;;;;;;;8.95;5.82;;;;;;;8.31;69.75;98499.22;4471046;32;33015;-79
2023/12/13 08:39:34;;;;;;;8.73;5.20;;;;;;;8.06;70.27;98508.28;4471070;32;34020;-79
2023/12/13 08:42:05;;;;;;;7.93;5.43;;;;;;;8.17;70.07;98504.78;4471392;32;34019;-79
2023/12/13 08:44:34;;;;;;;9.45;6.80;;;;;;;8.11;70.28;98524.56;4471135;32;33906;-79
2023/12/13 08:47:04;;;;;;;8.90;5.45;;;;;;;8.24;70.03;98509.44;4471983;32;33696;-79
2023/12/13 08:49:33;;;;;;;9.15;6.45;;;;;;;8.24;69.97;98508.63;4470919;32;33682;-79
2023/12/13 08:52:03;;;;;;;10.95;8.20;;;;;;;8.37;69.67;98515.41;4470822;32;34182;-79
2023/12/13 08:54:33;;;;;;;27.17;14.80;;;;;;;8.48;69.44;98517.19;4470751;32;34724;-78
2023/12/13 08:57:02;;;;;;;18.60;11.65;;;;;;;8.55;68.85;98517.50;4471218;32;33618;-79
2023/12/13 08:59:34;;;;;;;13.35;8.23;;;;;;;8.23;69.99;98518.31;4471360;32;34714;-79
2023/12/13 09:02:03;;;;;;;9.48;7.00;;;;;;;8.31;69.94;98505.31;4471389;32;34313;-79
2023/12/13 09:04:32;;;;;;;11.10;8.20;;;;;;;8.41;69.79;98504.63;4471274;32;34443;-79
2023/12/13 09:07:01;;;;;;;9.02;8.05;;;;;;;8.39;69.78;98499.44;4472904;32;33494;-78
2023/12/13 09:09:32;;;;;;;10.95;9.85;;;;;;;8.43;69.76;98505.31;4470473;32;34766;-77
2023/12/13 09:12:02;;;;;;;13.93;11.90;;;;;;;8.45;69.65;98504.22;4469827;32;34094;-77
2023/12/13 09:14:31;;;;;;;15.60;11.15;;;;;;;8.56;69.38;98492.78;4469700;32;34139;-77
2023/12/13 09:17:03;;;;;;;11.55;7.45;;;;;;;8.70;68.88;98495.09;4456297;32;32478;-79
2023/12/13 09:19:34;;;;;;;9.93;8.45;;;;;;;8.55;69.16;98497.22;4455585;32;32408;-79
2023/12/13 09:22:04;;;;;;;10.68;9.52;;;;;;;8.47;69.37;98494.38;4469915;32;33936;-78
2023/12/13 09:24:34;;;;;;;10.48;9.40;;;;;;;8.39;69.61;98491.53;4469646;32;33969;-78
2023/12/13 09:27:04;;;;;;;9.23;7.55;;;;;;;8.45;69.34;98491.03;4469745;32;34563;-78
2023/12/13 09:29:33;;;;;;;10.85;9.55;;;;;;;8.50;69.11;98502.03;4469545;32;34652;-78
2023/12/13 09:32:04;;;;;;;11.95;9.68;;;;;;;8.44;69.22;98518.41;4470143;32;34786;-78
2023/12/13 09:34:33;;;;;;;20.60;16.30;;;;;;;8.51;69.03;98511.66;4469065;32;34648;-78
2023/12/13 09:37:03;;;;;;;19.65;16.15;;;;;;;8.45;69.20;98501.59;4469912;32;33742;-78
2023/12/13 09:39:32;;;;;;;17.77;15.30;;;;;;;8.56;68.88;98500.72;4469660;32;34604;-78
2023/12/13 09:42:04;;;;;;;16.05;14.30;;;;;;;8.42;69.41;98501.84;4469693;32;33883;-78
2023/12/13 09:44:39;;;;;;;14.48;12.65;;;;;;;8.38;69.62;98500.41;4469397;32;34431;-78
2023/12/13 09:47:11;;;;;;;18.33;13.50;;;;;;;8.44;69.52;98507.00;4469863;32;33651;-78
2023/12/13 09:49:44;;;;;;;;;;;;;;;8.43;69.63;98502.66;4469814;32;34050;-78
2023/12/13 09:52:18;;;;;;;14.65;9.95;;;;;;;8.67;68.89;98507.72;4469519;32;35080;-78
2023/12/13 09:54:47;;;;;;;16.90;13.68;;;;;;;8.43;69.44;98508.78;4469298;32;34614;-78
2023/12/13 09:57:17;;;;;;;12.60;10.10;;;;;;;8.47;69.57;98512.00;4469424;32;33560;-78
2023/12/13 09:59:46;;;;;;;12.35;9.68;;;;;;;8.39;69.89;98507.34;4469377;32;34185;-78
2023/12/13 10:02:17;;;;;;;14.73;9.82;;;;;;;8.70;68.90;98504.81;4469755;32;34012;-78
2023/12/13 10:04:48;;;;;;;10.77;9.68;;;;;;;8.64;69.33;98500.06;4469304;32;49152;-78
2023/12/13 10:07:17;;;;;;;12.23;9.55;;;;;;;8.59;69.19;98503.94;4469522;32;33756;-78
2023/12/13 10:09:46;;;;;;;13.90;11.07;;;;;;;8.47;69.87;98501.44;4469291;32;34004;-78
2023/12/13 10:12:16;;;;;;;12.25;10.93;;;;;;;8.47;69.83;98504.91;4469140;32;34253;-78
2023/12/13 10:14:45;;;;;;;15.57;12.63;;;;;;;8.44;70.05;98499.09;4469142;32;34376;-78
2023/12/13 10:17:20;;;;;;;20.80;13.80;;;;;;;8.38;70.39;98495.12;4469599;32;33592;-78
2023/12/13 10:19:49;;;;;;;18.80;15.45;;;;;;;8.49;70.20;98483.69;4469498;32;48962;-78
2023/12/13 10:22:23;;;;;;;14.43;12.82;;;;;;;8.49;70.46;98487.16;4469356;32;34719;-78
2023/12/13 10:24:52;;;;;;;14.52;10.95;;;;;;;8.59;70.18;98489.88;4469752;32;33847;-78
2023/12/13 10:27:22;;;;;;;11.38;9.73;;;;;;;8.58;70.24;98485.56;4455288;32;34695;-78
2023/12/13 10:29:52;;;;;;;15.40;10.98;;;;;;;8.45;70.65;98472.56;4469594;32;33963;-78
2023/12/13 10:32:22;;;;;;;15.15;11.88;;;;;;;8.36;70.91;98476.78;4468892;32;34634;-78
2023/12/13 10:34:52;;;;;;;11.80;10.60;;;;;;;8.66;70.15;98469.06;4469007;32;34250;-78
2023/12/13 10:37:24;;;;;;;11.20;9.95;;;;;;;8.42;70.79;98466.69;4454425;32;33620;-78
2023/12/13 10:39:57;;;;;;;15.57;9.88;;;;;;;8.62;70.18;98464.06;4468823;32;34205;-78
2023/12/13 10:42:27;;;;;;;11.93;9.75;;;;;;;8.61;70.26;98465.03;4468611;32;35083;-79
2023/12/13 10:44:57;;;;;;;11.60;10.40;;;;;;;8.69;69.92;98468.81;4468782;32;34295;-78
2023/12/13 10:47:28;;;;;;;13.93;12.52;;;;;;;8.52;70.15;98464.97;4470811;32;33556;-78
2023/12/13 10:50:00;;;;;;;13.73;10.60;;;;;;;8.64;69.69;98463.09;4471367;32;33930;-78
2023/12/13 10:52:31;;;;;;;14.15;11.20;;;;;;;8.35;70.50;98459.28;4470854;32;34777;-79
2023/12/13 10:55:03;;;;;;;15.27;12.32;;;;;;;8.59;70.01;98451.13;4471465;32;34687;-78
2023/12/13 10:57:32;;;;;;;14.23;12.02;;;;;;;8.51;70.05;98443.03;4471388;32;34238;-78
2023/12/13 11:00:03;;;;;;;13.93;11.98;;;;;;;8.48;70.34;98432.72;4470910;32;34029;-78
2023/12/13 11:02:39;;;;;;;14.63;11.45;;;;;;;8.62;69.92;98428.91;4471448;32;33980;-78
2023/12/13 11:05:12;;;;;;;16.42;12.15;;;;;;;8.50;70.43;98424.66;4471313;32;34595;-78
2023/12/13 11:07:45;;;;;;;15.65;12.60;;;;;;;8.72;69.63;98426.31;4471310;32;33799;-78
2023/12/13 11:10:15;;;;;;;14.93;13.23;;;;;;;8.66;69.71;98434.75;4470863;32;34110;-78
2023/12/13 11:12:49;;;;;;;12.98;11.32;;;;;;;8.60;70.15;98420.28;4470744;32;34761;-78
2023/12/13 11:15:20;;;;;;;16.50;11.52;;;;;;;8.61;70.01;98420.12;4470539;32;34608;-78
2023/12/13 11:17:54;;;;;;;16.35;12.93;;;;;;;8.64;69.91;98416.41;4470642;32;33396;-78
2023/12/13 11:20:24;;;;;;;17.55;12.27;;;;;;;8.83;69.44;98416.53;4470611;32;34500;-77
2023/12/13 11:22:56;;;;;;;16.02;11.80;;;;;;;8.75;69.66;98415.47;4470935;32;33964;-78
2023/12/13 11:25:37;;;;;;;22.42;15.40;;;;;;;8.82;69.25;98416.63;4470510;32;34113;-78
2023/12/13 11:28:06;;;;;;;28.10;20.65;;;;;;;8.79;69.24;98407.19;4470582;32;34285;-78
2023/12/13 11:30:41;;;;;;;25.33;19.00;;;;;;;8.74;69.36;98397.97;4470766;32;33713;-78
2023/12/13 11:33:17;;;;;;;21.10;15.20;;;;;;;8.87;69.00;98395.97;4470493;32;34655;-78
2023/12/13 11:35:46;;;;;;;20.05;14.95;;;;;;;8.77;69.16;98395.06;4470230;32;34483;-78
2023/12/13 11:38:16;;;;;;;19.62;15.13;;;;;;;8.79;69.21;98390.47;4470822;32;34135;-78
2023/12/13 11:40:46;;;;;;;19.00;14.00;;;;;;;8.84;68.97;98393.59;4470554;32;48875;-78
2023/12/13 11:43:15;;;;;;;19.45;14.80;;;;;;;8.79;69.21;98388.69;4470548;32;34162;-78
2023/12/13 11:45:49;;;;;;;16.08;13.80;;;;;;;8.88;68.93;98391.50;4470181;32;33881;-78